createdAt,value
2019-04-30T00:01:37.481Z,12.26
2019-04-30T00:03:19.654Z,12.30
2019-04-30T00:04:55.930Z,12.26
2019-04-30T00:06:34.502Z,12.21
2019-04-30T00:08:06.029Z,12.20
2019-04-30T00:09:41.308Z,12.17
2019-04-30T00:11:19.391Z,12.16
2019-04-30T00:12:51.796Z,12.08
2019-04-30T00:14:32.138Z,12.03
2019-04-30T00:16:02.200Z,12.03
2019-04-30T00:17:36.405Z,12.01
2019-04-30T00:19:14.838Z,11.98
2019-04-30T00:20:47.094Z,11.97
2019-04-30T00:22:31.725Z,11.90
2019-04-30T00:24:00.750Z,11.86
2019-04-30T00:25:35.051Z,11.85
2019-04-30T00:27:09.714Z,11.84
2019-04-30T00:28:47.712Z,11.81
2019-04-30T00:30:19.849Z,11.76
2019-04-30T00:31:57.658Z,11.74
2019-04-30T00:33:29.955Z,11.72
2019-04-30T00:35:11.724Z,11.74
2019-04-30T00:36:45.920Z,11.75
2019-04-30T00:38:19.776Z,11.74
2019-04-30T00:39:55.578Z,11.75
2019-04-30T00:41:30.337Z,11.74
2019-04-30T00:43:08.867Z,11.72
2019-04-30T00:44:40.628Z,11.71
2019-04-30T00:46:17.297Z,11.69
2019-04-30T00:47:51.285Z,11.64
2019-04-30T00:49:26.656Z,11.61
2019-04-30T00:51:00.944Z,11.57
2019-04-30T00:52:37.041Z,11.53
2019-04-30T00:54:11.072Z,11.52
2019-04-30T00:55:48.464Z,11.49
2019-04-30T00:57:21.150Z,11.44
2019-04-30T00:58:57.752Z,11.43
2019-04-30T01:00:33.356Z,11.44
2019-04-30T01:02:19.915Z,11.43
2019-04-30T01:03:56.072Z,11.42
2019-04-30T01:05:30.338Z,11.44
2019-04-30T01:07:08.581Z,11.45
2019-04-30T01:08:41.775Z,11.47
2019-04-30T01:10:19.718Z,11.49
2019-04-30T01:11:52.547Z,11.48
2019-04-30T01:13:26.779Z,11.48
2019-04-30T01:15:01.689Z,11.49
2019-04-30T01:16:36.965Z,11.50
2019-04-30T01:18:11.153Z,11.52
2019-04-30T01:19:46.007Z,11.51
2019-04-30T01:21:21.281Z,11.52
2019-04-30T01:22:55.475Z,11.50
2019-04-30T01:24:31.701Z,11.48
2019-04-30T01:26:05.976Z,11.45
2019-04-30T01:27:45.786Z,11.45
2019-04-30T01:29:16.994Z,11.44
2019-04-30T01:30:53.841Z,11.43
2019-04-30T01:32:28.541Z,11.44
2019-04-30T01:34:05.126Z,11.44
2019-04-30T01:35:40.576Z,11.45
2019-04-30T01:37:14.779Z,11.48
2019-04-30T01:38:52.369Z,11.47
2019-04-30T01:40:24.868Z,11.49
2019-04-30T01:42:02.831Z,11.51
2019-04-30T01:43:34.927Z,11.53
2019-04-30T01:45:09.340Z,11.52
2019-04-30T01:46:48.202Z,11.49
2019-04-30T01:48:20.430Z,11.39
2019-04-30T01:49:55.922Z,11.34
2019-04-30T01:51:30.532Z,11.30
2019-04-30T01:53:08.867Z,11.24
2019-04-30T01:54:40.683Z,11.17
2019-04-30T01:56:25.524Z,11.13
2019-04-30T01:58:16.340Z,11.10
2019-04-30T02:00:09.717Z,11.08
2019-04-30T02:01:45.700Z,11.08
2019-04-30T02:03:20.380Z,11.07
2019-04-30T02:04:54.594Z,11.07
2019-04-30T02:06:29.449Z,11.07
2019-04-30T02:08:03.839Z,11.10
2019-04-30T02:09:38.798Z,11.11
2019-04-30T02:11:13.282Z,11.11
2019-04-30T02:12:49.202Z,11.11
2019-04-30T02:14:23.554Z,11.10
2019-04-30T02:15:59.223Z,11.06
2019-04-30T02:17:33.851Z,10.94
2019-04-30T02:19:09.134Z,10.99
2019-04-30T02:20:43.438Z,10.96
2019-04-30T02:22:18.944Z,10.95
2019-04-30T02:23:53.347Z,10.93
2019-04-30T02:25:29.354Z,10.89
2019-04-30T02:27:03.479Z,10.89
2019-04-30T02:28:39.258Z,10.88
2019-04-30T02:30:13.777Z,10.88
2019-04-30T02:31:50.074Z,10.92
2019-04-30T02:33:24.769Z,10.92
2019-04-30T02:35:19.294Z,10.94
2019-04-30T02:36:54.384Z,10.94
2019-04-30T02:38:30.341Z,10.96
2019-04-30T02:40:06.589Z,10.98
2019-04-30T02:41:41.810Z,11.00
2019-04-30T02:43:16.659Z,10.99
2019-04-30T02:44:51.730Z,10.98
2019-04-30T02:46:29.237Z,10.97
2019-04-30T02:48:04.824Z,11.00
2019-04-30T02:49:40.750Z,11.01
2019-04-30T02:51:22.540Z,11.02
2019-04-30T02:52:54.901Z,11.04
2019-04-30T02:54:30.949Z,11.05
2019-04-30T02:56:05.156Z,11.04
2019-04-30T02:57:40.070Z,11.04
2019-04-30T02:59:14.545Z,11.04
2019-04-30T03:00:49.597Z,11.01
2019-04-30T03:02:24.169Z,10.94
2019-04-30T03:03:59.783Z,10.89
2019-04-30T03:05:34.846Z,10.81
2019-04-30T03:07:09.813Z,10.75
2019-04-30T03:08:44.277Z,10.66
2019-04-30T03:10:20.020Z,10.58
2019-04-30T03:11:54.395Z,10.54
2019-04-30T03:13:29.954Z,10.52
2019-04-30T03:15:05.692Z,10.52
2019-04-30T03:17:00.199Z,10.48
2019-04-30T03:18:35.657Z,10.49
2019-04-30T03:20:32.654Z,10.49
2019-04-30T03:22:00.964Z,10.51
2019-04-30T03:23:35.188Z,10.49
2019-04-30T03:25:09.517Z,10.49
2019-04-30T03:26:43.966Z,10.46
2019-04-30T03:28:20.153Z,10.46
2019-04-30T03:29:54.062Z,10.45
2019-04-30T03:31:32.241Z,10.43
2019-04-30T03:33:04.194Z,10.44
2019-04-30T03:34:42.102Z,10.45
2019-04-30T03:36:14.324Z,10.49
2019-04-30T03:37:49.713Z,10.53
2019-04-30T03:39:24.320Z,10.59
2019-04-30T03:41:00.247Z,10.65
2019-04-30T03:42:34.453Z,10.68
2019-04-30T03:44:20.377Z,10.74
2019-04-30T03:45:44.577Z,10.79
2019-04-30T03:47:20.176Z,10.82
2019-04-30T03:48:55.069Z,10.89
2019-04-30T03:50:41.508Z,10.95
2019-04-30T03:52:05.180Z,10.99
2019-04-30T03:53:42.686Z,11.02
2019-04-30T03:55:15.615Z,11.09
2019-04-30T03:56:51.213Z,11.16
2019-04-30T03:58:25.424Z,11.16
2019-04-30T03:59:59.685Z,11.18
2019-04-30T04:01:35.538Z,11.23
2019-04-30T04:03:10.204Z,11.26
2019-04-30T04:04:55.260Z,11.30
2019-04-30T04:06:31.657Z,11.34
2019-04-30T04:08:10.064Z,11.38
2019-04-30T04:09:49.899Z,11.45
2019-04-30T04:11:25.943Z,11.51
2019-04-30T04:13:00.177Z,11.54
2019-04-30T04:14:34.379Z,11.56
2019-04-30T04:16:09.674Z,11.58
2019-04-30T04:17:44.400Z,11.59
2019-04-30T04:19:19.664Z,11.60
2019-04-30T04:21:07.637Z,11.66
2019-04-30T04:22:30.809Z,11.72
2019-04-30T04:24:05.226Z,11.70
2019-04-30T04:25:40.039Z,11.68
2019-04-30T04:27:14.470Z,11.70
2019-04-30T04:28:49.634Z,11.74
2019-04-30T04:30:24.307Z,11.80
2019-04-30T04:32:00.832Z,11.85
2019-04-30T04:33:34.416Z,11.91
2019-04-30T04:35:12.689Z,12.00
2019-04-30T04:36:45.596Z,12.01
2019-04-30T04:38:20.398Z,12.00
2019-04-30T04:39:55.132Z,12.02
2019-04-30T04:41:29.610Z,12.14
2019-04-30T04:43:04.013Z,12.28
2019-04-30T04:44:39.940Z,12.35
2019-04-30T04:46:14.195Z,12.43
2019-04-30T04:47:50.414Z,12.55
2019-04-30T04:49:24.871Z,12.71
2019-04-30T04:51:00.131Z,12.88
2019-04-30T04:52:34.869Z,13.04
2019-04-30T04:54:10.333Z,13.21
2019-04-30T04:55:44.940Z,13.34
2019-04-30T04:57:22.235Z,13.44
2019-04-30T04:58:55.034Z,13.60
2019-04-30T05:00:29.487Z,13.76
2019-04-30T05:02:22.041Z,13.95
2019-04-30T05:03:56.321Z,14.39
2019-04-30T05:05:30.580Z,14.91
2019-04-30T05:07:04.781Z,15.29
2019-04-30T05:08:39.669Z,15.70
2019-04-30T05:10:14.425Z,16.18
2019-04-30T05:11:48.815Z,16.47
2019-04-30T05:13:23.268Z,16.67
2019-04-30T05:14:59.577Z,16.72
2019-04-30T05:16:33.432Z,16.75
2019-04-30T05:18:09.149Z,16.67
2019-04-30T05:19:43.569Z,16.56
2019-04-30T05:21:18.842Z,16.49
2019-04-30T05:22:53.380Z,16.41
2019-04-30T05:24:28.652Z,16.32
2019-04-30T05:26:02.994Z,16.23
2019-04-30T05:27:39.063Z,16.22
2019-04-30T05:29:13.052Z,16.25
2019-04-30T05:30:49.238Z,16.41
2019-04-30T05:32:23.161Z,16.78
2019-04-30T05:33:58.705Z,17.21
2019-04-30T05:35:33.066Z,17.39
2019-04-30T05:37:09.020Z,17.60
2019-04-30T05:38:43.244Z,18.01
2019-04-30T05:40:18.857Z,18.66
2019-04-30T05:41:53.396Z,19.18
2019-04-30T05:43:28.975Z,19.50
2019-04-30T05:45:05.113Z,20.09
2019-04-30T05:46:39.810Z,20.53
2019-04-30T05:48:14.068Z,21.04
2019-04-30T05:49:49.098Z,21.25
2019-04-30T05:51:23.626Z,21.49
2019-04-30T05:52:59.176Z,21.73
2019-04-30T05:54:34.002Z,21.92
2019-04-30T05:56:09.436Z,21.75
2019-04-30T05:57:55.627Z,21.86
2019-04-30T05:59:20.625Z,21.75
2019-04-30T06:00:55.284Z,21.96
2019-04-30T06:02:33.610Z,22.23
2019-04-30T06:04:05.332Z,22.37
2019-04-30T06:05:39.538Z,22.75
2019-04-30T06:07:13.791Z,22.94
2019-04-30T06:09:10.588Z,22.87
2019-04-30T06:10:52.460Z,22.34
2019-04-30T06:12:39.166Z,21.92
2019-04-30T06:14:32.692Z,21.41
2019-04-30T06:16:08.859Z,21.24
2019-04-30T06:18:00.267Z,21.45
2019-04-30T06:19:29.624Z,21.37
2019-04-30T06:21:03.879Z,21.49
2019-04-30T06:22:38.571Z,21.60
2019-04-30T06:24:13.021Z,21.65
2019-04-30T06:25:57.332Z,21.66
2019-04-30T06:27:24.776Z,21.83
2019-04-30T06:28:59.370Z,22.06
2019-04-30T06:30:33.848Z,22.26
2019-04-30T06:32:08.739Z,22.58
2019-04-30T06:33:43.604Z,23.05
2019-04-30T06:35:19.339Z,23.44
2019-04-30T06:36:56.934Z,23.71
2019-04-30T06:38:30.220Z,24.06
2019-04-30T06:40:06.101Z,24.06
2019-04-30T06:41:41.059Z,24.18
2019-04-30T06:43:15.583Z,24.18
2019-04-30T06:44:50.784Z,24.30
2019-04-30T06:46:25.110Z,24.38
2019-04-30T06:48:02.832Z,24.42
2019-04-30T06:49:39.089Z,24.44
2019-04-30T06:51:13.208Z,24.45
2019-04-30T06:52:56.253Z,24.56
2019-04-30T06:54:23.288Z,24.70
2019-04-30T06:55:58.984Z,24.89
2019-04-30T06:57:33.564Z,24.83
2019-04-30T06:59:09.223Z,24.67
2019-04-30T07:00:44.140Z,24.66
2019-04-30T07:02:19.658Z,24.88
2019-04-30T07:03:56.770Z,24.76
2019-04-30T07:05:29.996Z,24.42
2019-04-30T07:07:04.272Z,24.25
2019-04-30T07:08:51.952Z,24.23
2019-04-30T07:10:23.664Z,24.34
2019-04-30T07:12:09.079Z,24.39
2019-04-30T07:13:45.299Z,24.28
2019-04-30T07:15:19.759Z,24.21
2019-04-30T07:16:54.456Z,24.33
2019-04-30T07:18:28.899Z,24.00
2019-04-30T07:20:04.076Z,24.14
2019-04-30T07:21:42.803Z,24.33
2019-04-30T07:23:14.216Z,24.58
2019-04-30T07:24:49.698Z,24.62
2019-04-30T07:26:24.763Z,24.15
2019-04-30T07:27:59.806Z,23.86
2019-04-30T07:29:34.219Z,23.68
2019-04-30T07:31:14.185Z,23.73
2019-04-30T07:32:44.547Z,23.87
2019-04-30T07:34:19.644Z,24.05
2019-04-30T07:35:54.204Z,24.53
2019-04-30T07:37:29.233Z,24.99
2019-04-30T07:39:05.915Z,25.37
2019-04-30T07:40:40.161Z,25.29
2019-04-30T07:42:14.464Z,25.23
2019-04-30T07:43:49.412Z,25.10
2019-04-30T07:45:25.704Z,24.87
2019-04-30T07:47:02.033Z,24.54
2019-04-30T07:48:36.044Z,24.46
2019-04-30T07:50:11.077Z,24.54
2019-04-30T07:51:46.721Z,24.64
2019-04-30T07:53:21.495Z,24.93
2019-04-30T07:54:55.719Z,25.28
2019-04-30T07:56:37.276Z,25.69
2019-04-30T07:58:09.006Z,25.97
2019-04-30T07:59:43.793Z,26.03
2019-04-30T08:01:19.595Z,25.58
2019-04-30T08:03:01.301Z,25.31
2019-04-30T08:04:52.917Z,25.40
2019-04-30T08:06:30.649Z,25.33
2019-04-30T08:08:17.666Z,25.38
2019-04-30T08:09:42.191Z,25.38
2019-04-30T08:11:23.805Z,25.31
2019-04-30T08:12:51.743Z,25.12
2019-04-30T08:14:26.257Z,25.30
2019-04-30T08:16:00.467Z,25.88
2019-04-30T08:17:34.877Z,26.60
2019-04-30T08:19:09.195Z,27.36
2019-04-30T08:20:43.708Z,27.93
2019-04-30T08:22:19.623Z,28.51
2019-04-30T08:23:54.171Z,29.24
2019-04-30T08:25:29.089Z,29.33
2019-04-30T08:27:03.387Z,29.46
2019-04-30T08:28:38.700Z,29.18
2019-04-30T08:30:23.752Z,28.65
2019-04-30T08:31:49.521Z,28.49
2019-04-30T08:33:23.764Z,28.97
2019-04-30T08:35:00.930Z,29.10
2019-04-30T08:36:33.959Z,28.53
2019-04-30T08:38:10.567Z,28.42
2019-04-30T08:39:44.060Z,28.18
2019-04-30T08:41:19.303Z,27.68
2019-04-30T08:42:54.423Z,27.46
2019-04-30T08:44:29.451Z,27.21
2019-04-30T08:46:04.196Z,27.08
2019-04-30T08:47:39.295Z,26.73
2019-04-30T08:49:14.111Z,26.71
2019-04-30T08:50:49.704Z,26.85
2019-04-30T08:52:24.449Z,26.76
2019-04-30T08:53:58.819Z,26.80
2019-04-30T08:55:34.041Z,27.04
2019-04-30T08:57:08.629Z,27.33
2019-04-30T08:58:42.980Z,27.68
2019-04-30T09:00:19.137Z,28.08
2019-04-30T09:01:54.576Z,28.78
2019-04-30T09:03:29.609Z,29.20
2019-04-30T09:05:09.468Z,29.41
2019-04-30T09:06:45.728Z,29.87
2019-04-30T09:08:20.268Z,30.44
2019-04-30T09:09:54.472Z,30.48
2019-04-30T09:11:35.511Z,30.19
2019-04-30T09:13:04.528Z,30.63
2019-04-30T09:14:40.575Z,30.54
2019-04-30T09:16:15.068Z,30.27
2019-04-30T09:18:00.693Z,30.61
2019-04-30T09:19:25.196Z,30.57
2019-04-30T09:21:05.982Z,30.28
2019-04-30T09:22:36.242Z,30.22
2019-04-30T09:24:10.593Z,29.91
2019-04-30T09:25:44.777Z,29.84
2019-04-30T09:27:19.633Z,29.68
2019-04-30T09:28:54.190Z,29.37
2019-04-30T09:30:29.959Z,29.96
2019-04-30T09:32:04.244Z,30.56
2019-04-30T09:33:39.354Z,30.99
2019-04-30T09:35:13.805Z,30.98
2019-04-30T09:36:49.020Z,31.14
2019-04-30T09:38:23.893Z,30.99
2019-04-30T09:39:59.193Z,30.93
2019-04-30T09:41:33.606Z,30.94
2019-04-30T09:43:08.667Z,31.23
2019-04-30T09:44:43.092Z,31.62
2019-04-30T09:46:24.626Z,31.83
2019-04-30T09:47:53.581Z,32.00
2019-04-30T09:49:29.431Z,32.10
2019-04-30T09:51:04.042Z,32.06
2019-04-30T09:52:39.637Z,31.96
2019-04-30T09:54:14.906Z,31.82
2019-04-30T09:55:49.717Z,31.85
2019-04-30T09:57:24.461Z,31.63
2019-04-30T09:58:59.349Z,31.15
2019-04-30T10:00:33.878Z,30.69
2019-04-30T10:02:09.293Z,31.10
2019-04-30T10:03:44.107Z,31.72
2019-04-30T10:05:20.170Z,32.07
2019-04-30T10:06:54.708Z,32.30
2019-04-30T10:08:30.685Z,31.96
2019-04-30T10:10:09.410Z,31.75
2019-04-30T10:11:50.332Z,31.77
2019-04-30T10:13:24.540Z,31.38
2019-04-30T10:14:59.293Z,31.19
2019-04-30T10:16:39.588Z,30.97
2019-04-30T10:18:14.233Z,31.37
2019-04-30T10:19:49.204Z,31.70
2019-04-30T10:21:23.617Z,31.90
2019-04-30T10:22:59.583Z,31.62
2019-04-30T10:24:34.609Z,31.12
2019-04-30T10:26:08.832Z,30.40
2019-04-30T10:27:43.101Z,30.44
2019-04-30T10:29:18.516Z,30.52
2019-04-30T10:30:52.934Z,30.24
2019-04-30T10:32:27.200Z,30.25
2019-04-30T10:34:01.406Z,30.33
2019-04-30T10:35:35.628Z,29.96
2019-04-30T10:37:10.844Z,29.75
2019-04-30T10:38:45.192Z,29.86
2019-04-30T10:40:20.325Z,30.04
2019-04-30T10:41:54.816Z,30.27
2019-04-30T10:43:31.966Z,30.47
2019-04-30T10:45:09.724Z,30.60
2019-04-30T10:46:44.193Z,30.47
2019-04-30T10:48:18.444Z,30.18
2019-04-30T10:49:53.113Z,30.14
2019-04-30T10:51:28.820Z,29.42
2019-04-30T10:53:03.352Z,29.17
2019-04-30T10:54:38.933Z,29.01
2019-04-30T10:56:13.637Z,29.09
2019-04-30T10:57:49.562Z,29.07
2019-04-30T10:59:23.925Z,29.21
2019-04-30T11:00:59.493Z,28.87
2019-04-30T11:02:34.293Z,28.80
2019-04-30T11:04:08.548Z,28.72
2019-04-30T11:05:42.753Z,28.48
2019-04-30T11:07:18.646Z,28.53
2019-04-30T11:08:53.242Z,28.20
2019-04-30T11:10:29.361Z,27.19
2019-04-30T11:12:04.240Z,26.32
2019-04-30T11:13:38.457Z,25.66
2019-04-30T11:15:12.925Z,24.29
2019-04-30T11:16:47.277Z,23.49
2019-04-30T11:18:23.261Z,23.05
2019-04-30T11:19:59.244Z,22.89
2019-04-30T11:21:33.985Z,22.56
2019-04-30T11:23:14.505Z,22.32
2019-04-30T11:24:56.472Z,22.21
2019-04-30T11:26:20.970Z,21.82
2019-04-30T11:27:56.311Z,21.59
2019-04-30T11:29:31.271Z,21.36
2019-04-30T11:31:25.562Z,21.23
2019-04-30T11:33:00.679Z,21.28
2019-04-30T11:34:34.980Z,21.09
2019-04-30T11:36:09.672Z,21.02
2019-04-30T11:37:43.952Z,20.71
2019-04-30T11:39:20.065Z,20.66
2019-04-30T11:40:54.279Z,20.65
2019-04-30T11:42:28.524Z,20.69
2019-04-30T11:44:02.808Z,20.44
2019-04-30T11:45:49.500Z,20.17
2019-04-30T11:47:25.210Z,19.62
2019-04-30T11:48:59.480Z,19.18
2019-04-30T11:50:33.692Z,18.92
2019-04-30T11:52:08.273Z,18.73
2019-04-30T11:53:42.528Z,18.49
2019-04-30T11:55:19.192Z,18.35
2019-04-30T11:56:53.205Z,18.25
2019-04-30T11:58:30.372Z,18.33
2019-04-30T12:00:08.536Z,18.28
2019-04-30T12:01:44.249Z,18.25
2019-04-30T12:03:19.155Z,18.32
2019-04-30T12:04:53.928Z,18.27
2019-04-30T12:06:28.538Z,18.45
2019-04-30T12:08:13.508Z,18.50
2019-04-30T12:10:09.394Z,18.61
2019-04-30T12:11:44.772Z,18.74
2019-04-30T12:13:26.761Z,18.88
2019-04-30T12:15:02.769Z,18.87
2019-04-30T12:16:39.446Z,18.73
2019-04-30T12:18:13.437Z,18.60
2019-04-30T12:19:48.831Z,18.62
2019-04-30T12:21:23.341Z,18.52
2019-04-30T12:22:59.144Z,18.45
2019-04-30T12:24:33.719Z,18.50
2019-04-30T12:26:09.134Z,18.65
2019-04-30T12:27:43.824Z,18.68
2019-04-30T12:29:19.114Z,18.64
2019-04-30T12:30:53.716Z,18.48
2019-04-30T12:32:29.849Z,18.20
2019-04-30T12:34:03.887Z,18.04
2019-04-30T12:35:38.581Z,17.88
2019-04-30T12:37:12.833Z,17.76
2019-04-30T12:38:47.048Z,17.61
2019-04-30T12:40:28.726Z,17.48
2019-04-30T12:41:59.242Z,17.06
2019-04-30T12:43:33.441Z,16.70
2019-04-30T12:45:09.547Z,16.46
2019-04-30T12:46:43.745Z,16.61
2019-04-30T12:48:22.910Z,16.82
2019-04-30T12:50:15.096Z,16.83
2019-04-30T12:51:59.963Z,16.77
2019-04-30T12:53:48.229Z,16.70
2019-04-30T12:55:33.368Z,16.71
2019-04-30T12:57:12.277Z,16.71
2019-04-30T12:58:46.504Z,16.79
2019-04-30T13:00:22.313Z,16.85
2019-04-30T13:01:56.569Z,16.68
2019-04-30T13:03:30.883Z,16.51
2019-04-30T13:05:08.824Z,16.38
2019-04-30T13:06:43.936Z,16.38
2019-04-30T13:08:20.707Z,16.45
2019-04-30T13:09:54.737Z,16.50
2019-04-30T13:11:30.783Z,16.50
2019-04-30T13:13:06.808Z,16.52
2019-04-30T13:14:51.351Z,16.61
2019-04-30T13:16:19.307Z,16.65
2019-04-30T13:17:53.684Z,16.65
2019-04-30T13:19:28.114Z,16.64
2019-04-30T13:21:02.453Z,16.80
2019-04-30T13:22:36.676Z,17.03
2019-04-30T13:24:10.999Z,17.16
2019-04-30T13:25:51.286Z,17.16
2019-04-30T13:27:23.133Z,17.19
2019-04-30T13:28:58.982Z,17.26
2019-04-30T13:30:33.264Z,17.39
2019-04-30T13:32:08.609Z,17.53
2019-04-30T13:33:50.062Z,17.59
2019-04-30T13:35:23.224Z,17.64
2019-04-30T13:36:59.290Z,17.75
2019-04-30T13:38:47.445Z,17.83
2019-04-30T13:40:21.299Z,17.96
2019-04-30T13:42:14.551Z,17.92
2019-04-30T13:43:48.568Z,17.88
2019-04-30T13:45:22.536Z,17.91
2019-04-30T13:46:57.068Z,17.96
2019-04-30T13:48:32.520Z,17.93
2019-04-30T13:50:09.300Z,17.94
2019-04-30T13:51:44.972Z,18.03
2019-04-30T13:53:19.226Z,18.17
2019-04-30T13:54:53.433Z,18.32
2019-04-30T13:56:28.675Z,18.43
2019-04-30T13:58:03.236Z,18.47
2019-04-30T13:59:37.525Z,18.50
2019-04-30T14:01:11.806Z,18.56
2019-04-30T14:02:50.549Z,18.58
2019-04-30T14:04:26.400Z,18.64
2019-04-30T14:06:00.769Z,18.73
2019-04-30T14:07:39.990Z,18.91
2019-04-30T14:09:14.329Z,19.08
2019-04-30T14:10:49.345Z,19.19
2019-04-30T14:12:23.920Z,19.28
2019-04-30T14:13:58.240Z,19.41
2019-04-30T14:15:32.915Z,19.52
2019-04-30T14:17:09.087Z,19.60
2019-04-30T14:18:43.017Z,19.62
2019-04-30T14:20:17.539Z,19.65
2019-04-30T14:21:52.196Z,19.68
2019-04-30T14:23:28.547Z,19.64
2019-04-30T14:25:02.336Z,19.23
2019-04-30T14:26:36.584Z,19.08
2019-04-30T14:28:10.925Z,19.15
2019-04-30T14:29:45.132Z,19.29
2019-04-30T14:31:20.835Z,19.39
2019-04-30T14:32:55.180Z,19.37
2019-04-30T14:34:29.658Z,19.32
2019-04-30T14:36:03.873Z,19.19
2019-04-30T14:37:38.878Z,19.07
2019-04-30T14:39:16.806Z,19.04
2019-04-30T14:40:51.039Z,19.05
2019-04-30T14:42:26.330Z,19.10
2019-04-30T14:44:09.183Z,19.10
2019-04-30T14:45:54.989Z,19.05
2019-04-30T14:47:34.897Z,18.97
2019-04-30T14:49:28.880Z,18.86
2019-04-30T14:51:04.180Z,18.81
2019-04-30T14:52:40.357Z,18.85
2019-04-30T14:54:19.987Z,18.90
2019-04-30T14:56:12.953Z,18.94
2019-04-30T14:57:51.940Z,18.91
2019-04-30T14:59:44.122Z,18.69
2019-04-30T15:01:23.795Z,18.52
2019-04-30T15:03:05.537Z,18.37
2019-04-30T15:04:39.744Z,18.26
2019-04-30T15:06:14.029Z,18.33
2019-04-30T15:07:48.536Z,18.40
2019-04-30T15:09:22.933Z,18.47
2019-04-30T15:10:57.217Z,18.52
2019-04-30T15:12:31.432Z,18.56
2019-04-30T15:14:05.956Z,18.57
2019-04-30T15:15:40.171Z,18.61
2019-04-30T15:17:14.401Z,18.68
2019-04-30T15:18:48.653Z,18.63
2019-04-30T15:20:23.205Z,18.66
2019-04-30T15:21:59.051Z,18.71
2019-04-30T15:23:34.943Z,18.75
2019-04-30T15:25:09.196Z,18.82
2019-04-30T15:26:43.522Z,18.86
2019-04-30T15:28:17.734Z,18.87
2019-04-30T15:29:57.046Z,18.89
2019-04-30T15:31:29.690Z,18.97
2019-04-30T15:33:14.796Z,19.05
2019-04-30T15:36:42.722Z,19.30
2019-04-30T15:38:19.261Z,19.35
2019-04-30T15:39:53.103Z,19.38
2019-04-30T15:41:27.379Z,19.39
2019-04-30T15:43:03.220Z,19.38
2019-04-30T15:44:45.269Z,19.23
2019-04-30T15:46:14.170Z,19.15
2019-04-30T15:47:48.684Z,19.09
2019-04-30T15:49:23.580Z,18.97
2019-04-30T15:50:59.055Z,18.85
2019-04-30T15:52:33.436Z,18.74
2019-04-30T15:54:07.701Z,18.56
2019-04-30T15:55:41.908Z,18.44
2019-04-30T15:57:18.836Z,18.33
2019-04-30T15:59:10.073Z,18.21
2019-04-30T16:00:44.368Z,18.00
2019-04-30T16:02:20.721Z,17.78
2019-04-30T16:03:56.674Z,17.61
2019-04-30T16:05:32.531Z,17.51
2019-04-30T16:07:08.462Z,17.34
2019-04-30T16:08:44.831Z,17.19
2019-04-30T16:10:20.724Z,17.09
2019-04-30T16:12:02.038Z,16.94
2019-04-30T16:13:39.463Z,16.76
2019-04-30T16:15:14.367Z,16.68
2019-04-30T16:16:50.204Z,16.61
2019-04-30T16:18:26.093Z,16.56
2019-04-30T16:20:00.402Z,16.47
2019-04-30T16:21:34.988Z,16.40
2019-04-30T16:23:09.239Z,16.27
2019-04-30T16:24:43.426Z,15.94
2019-04-30T16:26:17.686Z,15.61
2019-04-30T16:27:52.535Z,15.48
2019-04-30T16:29:26.753Z,15.47
2019-04-30T16:31:01.036Z,15.49
2019-04-30T16:32:35.249Z,15.53
2019-04-30T16:34:09.892Z,15.50
2019-04-30T16:35:45.608Z,15.41
2019-04-30T16:37:20.255Z,15.35
2019-04-30T16:38:54.508Z,15.24
2019-04-30T16:40:29.183Z,15.21
2019-04-30T16:42:03.386Z,15.17
2019-04-30T16:43:39.099Z,15.17
2019-04-30T16:45:13.595Z,15.18
2019-04-30T16:46:49.908Z,15.19
2019-04-30T16:48:24.240Z,15.22
2019-04-30T16:49:58.957Z,15.26
2019-04-30T16:51:33.300Z,15.27
2019-04-30T16:53:08.081Z,15.27
2019-04-30T16:54:42.359Z,15.26
2019-04-30T16:56:18.467Z,15.24
2019-04-30T16:57:52.456Z,15.23
2019-04-30T16:59:34.734Z,15.25
2019-04-30T17:01:10.581Z,15.26
2019-04-30T17:02:46.433Z,15.23
2019-04-30T17:04:22.309Z,15.21
2019-04-30T17:05:59.660Z,15.21
2019-04-30T17:07:54.189Z,15.18
2019-04-30T17:09:30.037Z,15.15
2019-04-30T17:11:11.878Z,15.16
2019-04-30T17:12:51.199Z,15.14
2019-04-30T17:14:23.622Z,15.13
2019-04-30T17:15:59.505Z,15.14
2019-04-30T17:17:38.630Z,15.13
2019-04-30T17:19:14.073Z,15.13
2019-04-30T17:20:49.387Z,15.12
2019-04-30T17:22:23.733Z,15.12
2019-04-30T17:23:58.859Z,15.09
2019-04-30T17:25:33.424Z,15.06
2019-04-30T17:27:18.806Z,15.04
2019-04-30T17:28:43.661Z,15.01
2019-04-30T17:30:24.170Z,14.99
2019-04-30T17:31:59.966Z,14.99
2019-04-30T17:33:34.216Z,14.98
2019-04-30T17:35:09.460Z,14.96
2019-04-30T17:36:44.205Z,14.97
2019-04-30T17:38:18.413Z,14.97
2019-04-30T17:39:52.959Z,14.93
2019-04-30T17:41:27.312Z,14.88
2019-04-30T17:43:01.869Z,14.84
2019-04-30T17:44:36.082Z,14.78
2019-04-30T17:46:10.403Z,14.70
2019-04-30T17:47:44.663Z,14.64
2019-04-30T17:49:19.918Z,14.60
2019-04-30T17:50:54.215Z,14.59
2019-04-30T17:52:29.850Z,14.56
2019-04-30T17:54:12.092Z,14.52
2019-04-30T17:55:50.390Z,14.46
2019-04-30T17:57:33.887Z,14.42
2019-04-30T17:59:01.859Z,14.39
2019-04-30T18:00:39.175Z,14.36
2019-04-30T18:02:15.625Z,14.34
2019-04-30T18:03:49.888Z,14.30
2019-04-30T18:05:25.187Z,14.26
2019-04-30T18:06:59.393Z,14.22
2019-04-30T18:08:34.205Z,14.18
2019-04-30T18:10:10.231Z,14.14
2019-04-30T18:11:44.501Z,14.10
2019-04-30T18:13:18.724Z,14.06
2019-04-30T18:14:53.371Z,14.05
2019-04-30T18:16:28.671Z,14.02
2019-04-30T18:18:11.005Z,14.02
2019-04-30T18:19:46.856Z,13.99
2019-04-30T18:21:26.474Z,13.99
2019-04-30T18:23:18.772Z,13.97
2019-04-30T18:24:59.171Z,13.94
2019-04-30T18:26:37.639Z,13.94
2019-04-30T18:28:12.242Z,13.91
2019-04-30T18:29:46.537Z,13.89
2019-04-30T18:31:20.833Z,13.87
2019-04-30T18:32:55.530Z,13.86
2019-04-30T18:34:29.776Z,13.85
2019-04-30T18:36:04.045Z,13.88
2019-04-30T18:37:38.713Z,13.89
2019-04-30T18:39:13.456Z,13.90
2019-04-30T18:40:49.494Z,13.90
2019-04-30T18:42:23.701Z,13.90
2019-04-30T18:43:59.662Z,13.87
2019-04-30T18:45:34.459Z,13.84
2019-04-30T18:47:09.140Z,13.81
2019-04-30T18:48:43.418Z,13.81
2019-04-30T18:50:17.732Z,13.80
2019-04-30T18:51:53.161Z,13.80
2019-04-30T18:53:29.134Z,13.80
2019-04-30T18:55:04.335Z,13.80
2019-04-30T18:56:38.981Z,13.79
2019-04-30T18:58:13.589Z,13.77
2019-04-30T18:59:47.887Z,13.78
2019-04-30T19:01:22.204Z,13.78
2019-04-30T19:02:58.527Z,13.80
2019-04-30T19:04:32.611Z,13.82
2019-04-30T19:06:16.526Z,13.84
2019-04-30T19:07:48.854Z,13.85
2019-04-30T19:09:44.636Z,13.84
2019-04-30T19:11:29.230Z,13.77
2019-04-30T19:13:05.289Z,13.73
2019-04-30T19:14:43.840Z,13.69
2019-04-30T19:16:40.013Z,13.64
2019-04-30T19:18:24.544Z,13.59
2019-04-30T19:20:15.423Z,13.57
2019-04-30T19:21:49.930Z,13.50
2019-04-30T19:23:25.329Z,13.47
2019-04-30T19:25:04.045Z,13.44
2019-04-30T19:26:35.399Z,13.42
2019-04-30T19:28:14.223Z,13.38
2019-04-30T19:29:46.539Z,13.37
2019-04-30T19:31:20.841Z,13.34
2019-04-30T19:32:55.077Z,13.32
2019-04-30T19:34:31.718Z,13.30
2019-04-30T19:36:05.751Z,13.31
2019-04-30T19:37:40.337Z,13.28
2019-04-30T19:39:16.740Z,13.25
2019-04-30T19:40:51.360Z,13.24
2019-04-30T19:42:25.596Z,13.22
2019-04-30T19:43:59.815Z,13.19
2019-04-30T19:45:35.492Z,13.18
2019-04-30T19:47:10.079Z,13.16
2019-04-30T19:48:44.290Z,13.14
2019-04-30T19:50:19.243Z,13.13
2019-04-30T19:52:07.619Z,13.10
2019-04-30T19:53:30.413Z,13.08
2019-04-30T19:55:05.194Z,13.08
2019-04-30T19:56:39.423Z,13.08
2019-04-30T19:58:25.363Z,13.06
2019-04-30T19:59:50.289Z,13.06
2019-04-30T20:01:24.601Z,13.05
2019-04-30T20:02:59.970Z,13.07
2019-04-30T20:04:36.443Z,13.09
2019-04-30T20:06:10.599Z,13.06
2019-04-30T20:07:44.922Z,13.06
2019-04-30T20:09:19.451Z,13.05
2019-04-30T20:10:53.880Z,13.09
2019-04-30T20:12:29.055Z,13.16
2019-04-30T20:14:03.525Z,13.22
2019-04-30T20:15:39.212Z,13.28
2019-04-30T20:17:13.676Z,13.29
2019-04-30T20:18:49.097Z,13.32
2019-04-30T20:20:23.568Z,13.34
2019-04-30T20:21:59.639Z,13.32
2019-04-30T20:23:33.959Z,13.31
2019-04-30T20:25:09.286Z,13.26
2019-04-30T20:26:43.821Z,13.26
2019-04-30T20:28:18.236Z,13.26
2019-04-30T20:29:52.460Z,13.25
2019-04-30T20:31:28.718Z,13.25
2019-04-30T20:33:04.490Z,13.24
2019-04-30T20:34:39.184Z,13.22
2019-04-30T20:36:15.467Z,13.19
2019-04-30T20:38:09.486Z,13.17
2019-04-30T20:39:45.444Z,13.13